East Clyde - southern half: Past 24 Hour Conditions

 

Resolute Airport

06:00 AM CDT 30 September 2014
This table is a summary of hourly weather conditions for the past 24 hours.
Date / Time
(CDT)
Wind(knots) Conditions Visibility(km) Pressure(kPa) Air tempC) Relative humidity(%) Dew pointC) Wind Chill
30 September 2014
6:00 NNW 16 gust 21 Drifting Snow 24 101.9 -12 84 -14 -22
5:00 N 21 Drifting Snow 24 101.9 -12 86 -14 -23
4:00 NW 19 Light Snow 10 102.0 -10 87 -12 -21
3:00 NNW 21 gust 26 Light Snow 8 101.9 -9 88 -10 -19
2:00 NNW 19 gust 25 N/A N/A 101.8 -8 90 -9 -18
1:00 NNW 28 Light Snow 13 101.9 -8 88 -10 -19
0:00 NNW 31 Light Snow 16 101.9 -8 89 -10 -20
29 September 2014
23:00 NNW 22 Light Snow 10 101.9 -8 90 -9 -18
22:00 NNW 17 gust 24 Light Snow 10 102.0 -8 88 -10 -17
21:00 NNW 21 gust 27 Light Snow 8 102.0 -8 88 -10 -18
20:00 NW 20 gust 25 Light Snow 5 102.0 -8 88 -10 -18
19:00 NNW 22 gust 30 Light Snow 3 102.0 -8 90 -10 -19
18:00 NW 17 Light Snow 6 102.0 -9 90 -10 -18
17:00 NNW 22 Light Snow 13 102.0 -10 88 -12 -21
16:00 NNW 23 Light Snow 16 102.0 -10 87 -12 -22
15:00 NNW 21 Light Snow 19 102.0 -11 85 -13 -21
14:00 NNW 21 Light Snow 19 102.0 -11 85 -13 -21
13:00 NW 23 Light Snow 19 102.0 -11 83 -13 -22
12:00 NNW 21 Light Snow 11 102.0 -10 85 -13 -21
11:00 NNW 16 Light Snow 11 102.0 -10 89 -12 -20
10:00 NNW 15 Light Snow 16 102.0 -11 88 -12 -20
9:00 NNW 19 Light Snow 24 102.0 -11 87 -13 -21
8:00 NNW 20 Light Snow 16 102.0 -10 89 -11 -20
7:00 NNW 19 Light Snow 24 102.0 -11 92 -12 -22
6:00 NNW 20 Light Snow 24 102.0 -11 87 -13 -22
 
Map of Arctic - Eastern Arctic marine weather areas Baker Lake Airport Chesterfield Inlet Airport Coral Harbour Airport Gjoa Haven Airport Kugaaruk Airport Rankin Inlet Airport Shepherd Bay Airport Whale Cove Airport Arctic Bay Brevoort Island Qikiqtarjuaq Airport Cape Dorset Airport Cape Dyer Cape Hooper Clyde Airport Grise Fiord Airport Hall Beach Airport Igloolik Airport Iqaluit Airport Longstaff Bluff Pangnirtung Airport Pond Inlet Airport Repulse Bay Airport Resolute Airport Resolution Island Rowley Island Airport Taloyoak Airport Wager Bay Akulivik Airport Ivujivik Airport Puvirnituq Airport Kangiqsujuaq Airport Kangirsuk Airport Quaqtaq Airport Tasiujaq Airport Cape Kakkiviak Cape Kiglapait Nain Airport Saglek Cape Mercy Kimmirut Airport Aupaluk Airport Salluit Airport Kangiqsualujjuaq Airport Fort Ross
Legend: buoyBuoy land stationLand Station